sensor_id;sensor_type;location;lat;lon;timestamp;temperature;humidity
55016;DHT22;40919;43.236;21.590;2023-07-20T03:38:13;563.40;1766.40
55016;DHT22;40919;43.236;21.590;2023-07-20T03:40:38;563.20;1715.20
55016;DHT22;40919;43.236;21.590;2023-07-20T03:43:04;563.40;1536.00
55016;DHT22;40919;43.236;21.590;2023-07-20T03:45:30;563.50;1228.80
55016;DHT22;40919;43.236;21.590;2023-07-20T03:47:56;563.40;1203.20
55016;DHT22;40919;43.236;21.590;2023-07-20T03:50:22;563.30;1459.20
55016;DHT22;40919;43.236;21.590;2023-07-20T03:52:47;563.30;1459.20
55016;DHT22;40919;43.236;21.590;2023-07-20T03:55:13;563.30;1433.60
55016;DHT22;40919;43.236;21.590;2023-07-20T03:57:39;563.40;1945.60
55016;DHT22;40919;43.236;21.590;2023-07-20T04:00:05;563.50;1484.80
55016;DHT22;40919;43.236;21.590;2023-07-20T04:02:33;563.60;1408.00
55016;DHT22;40919;43.236;21.590;2023-07-20T04:04:59;563.60;1817.60
55016;DHT22;40919;43.236;21.590;2023-07-20T04:07:24;563.40;1971.20
55016;DHT22;40919;43.236;21.590;2023-07-20T04:09:50;563.30;1843.20
55016;DHT22;40919;43.236;21.590;2023-07-20T04:12:17;563.40;1920.00
55016;DHT22;40919;43.236;21.590;2023-07-20T04:14:42;563.20;1792.00
55016;DHT22;40919;43.236;21.590;2023-07-20T04:17:08;538.50;1971.20
55016;DHT22;40919;43.236;21.590;2023-07-20T04:19:34;538.30;2304.00
55016;DHT22;40919;43.236;21.590;2023-07-20T04:21:59;563.20;2176.00
55016;DHT22;40919;43.236;21.590;2023-07-20T04:24:25;538.50;1459.20
55016;DHT22;40919;43.236;21.590;2023-07-20T04:26:51;563.20;1305.60
55016;DHT22;40919;43.236;21.590;2023-07-20T04:29:17;563.30;896.00
55016;DHT22;40919;43.236;21.590;2023-07-20T04:31:42;563.50;588.80
55016;DHT22;40919;43.236;21.590;2023-07-20T04:34:08;563.50;640.00
55016;DHT22;40919;43.236;21.590;2023-07-20T04:36:34;563.40;947.20
55016;DHT22;40919;43.236;21.590;2023-07-20T04:38:59;563.50;819.20
55016;DHT22;40919;43.236;21.590;2023-07-20T04:41:25;563.50;742.40
55016;DHT22;40919;43.236;21.590;2023-07-20T04:43:51;563.60;537.60
55016;DHT22;40919;43.236;21.590;2023-07-20T04:46:17;563.60;563.20
55016;DHT22;40919;43.236;21.590;2023-07-20T04:48:44;563.60;640.00
55016;DHT22;40919;43.236;21.590;2023-07-20T04:51:10;563.60;1100.80
55016;DHT22;40919;43.236;21.590;2023-07-20T04:53:35;563.70;819.20
55016;DHT22;40919;43.236;21.590;2023-07-20T04:56:01;563.60;1049.60
55016;DHT22;40919;43.236;21.590;2023-07-20T04:58:27;563.80;793.60
55016;DHT22;40919;43.236;21.590;2023-07-20T05:00:53;563.90;512.00
55016;DHT22;40919;43.236;21.590;2023-07-20T05:03:19;563.90;435.20
55016;DHT22;40919;43.236;21.590;2023-07-20T05:05:46;563.80;409.60
55016;DHT22;40919;43.236;21.590;2023-07-20T05:08:11;563.90;409.60
55016;DHT22;40919;43.236;21.590;2023-07-20T05:10:37;564.00;537.60
55016;DHT22;40919;43.236;21.590;2023-07-20T05:13:03;564.10;281.60
55016;DHT22;40919;43.236;21.590;2023-07-20T05:15:29;564.00;614.40
55016;DHT22;40919;43.236;21.590;2023-07-20T05:17:54;563.80;1049.60
55016;DHT22;40919;43.236;21.590;2023-07-20T05:20:20;563.80;1126.40
55016;DHT22;40919;43.236;21.590;2023-07-20T05:22:46;563.90;947.20
55016;DHT22;40919;43.236;21.590;2023-07-20T05:25:12;564.00;742.40
55016;DHT22;40919;43.236;21.590;2023-07-20T05:27:39;564.00;972.80
55016;DHT22;40919;43.236;21.590;2023-07-20T05:30:06;563.90;870.40
55016;DHT22;40919;43.236;21.590;2023-07-20T05:32:33;588.80;793.60
55016;DHT22;40919;43.236;21.590;2023-07-20T05:34:59;589.00;640.00
55016;DHT22;40919;43.236;21.590;2023-07-20T05:37:24;589.00;793.60
55016;DHT22;40919;43.236;21.590;2023-07-20T05:39:50;589.10;998.40
55016;DHT22;40919;43.236;21.590;2023-07-20T05:42:16;589.10;947.20
55016;DHT22;40919;43.236;21.590;2023-07-20T05:44:42;589.10;1024.00
55016;DHT22;40919;43.236;21.590;2023-07-20T05:47:08;588.90;1536.00
55016;DHT22;40919;43.236;21.590;2023-07-20T05:49:37;564.10;870.40
55016;DHT22;40919;43.236;21.590;2023-07-20T05:52:03;564.00;844.80
55016;DHT22;40919;43.236;21.590;2023-07-20T05:54:28;564.00;896.00
55016;DHT22;40919;43.236;21.590;2023-07-20T05:56:55;563.90;716.80
55016;DHT22;40919;43.236;21.590;2023-07-20T05:59:20;563.90;691.20
55016;DHT22;40919;43.236;21.590;2023-07-20T06:01:46;564.10;512.00
55016;DHT22;40919;43.236;21.590;2023-07-20T06:04:15;588.80;358.40
55016;DHT22;40919;43.236;21.590;2023-07-20T06:06:41;589.00;793.60
55016;DHT22;40919;43.236;21.590;2023-07-20T06:09:07;589.20;1459.20
55016;DHT22;40919;43.236;21.590;2023-07-20T06:11:38;589.40;1536.00
55016;DHT22;40919;43.236;21.590;2023-07-20T06:14:04;589.60;1843.20
55016;DHT22;40919;43.236;21.590;2023-07-20T06:16:30;589.50;1459.20
55016;DHT22;40919;43.236;21.590;2023-07-20T06:18:56;589.50;844.80
55016;DHT22;40919;43.236;21.590;2023-07-20T06:21:23;589.40;1280.00
55016;DHT22;40919;43.236;21.590;2023-07-20T06:23:48;589.30;896.00
55016;DHT22;40919;43.236;21.590;2023-07-20T06:26:14;589.20;1510.40
55016;DHT22;40919;43.236;21.590;2023-07-20T06:28:41;589.30;1843.20
55016;DHT22;40919;43.236;21.590;2023-07-20T06:31:07;589.30;2432.00
55016;DHT22;40919;43.236;21.590;2023-07-20T06:33:32;589.30;2432.00
55016;DHT22;40919;43.236;21.590;2023-07-20T06:36:00;589.40;2432.00
55016;DHT22;40919;43.236;21.590;2023-07-20T06:38:26;589.40;2432.00
55016;DHT22;40919;43.236;21.590;2023-07-20T06:40:52;589.40;2432.00
55016;DHT22;40919;43.236;21.590;2023-07-20T06:43:18;589.30;2432.00
55016;DHT22;40919;43.236;21.590;2023-07-20T06:45:44;589.30;2432.00
55016;DHT22;40919;43.236;21.590;2023-07-20T06:48:10;589.20;2432.00
55016;DHT22;40919;43.236;21.590;2023-07-20T06:50:35;589.30;2432.00
55016;DHT22;40919;43.236;21.590;2023-07-20T06:53:01;589.50;2432.00
55016;DHT22;40919;43.236;21.590;2023-07-20T06:55:29;589.70;2432.00
55016;DHT22;40919;43.236;21.590;2023-07-20T06:57:55;614.40;2432.00
55016;DHT22;40919;43.236;21.590;2023-07-20T07:00:21;614.70;2432.00
55016;DHT22;40919;43.236;21.590;2023-07-20T07:02:47;614.50;2432.00
55016;DHT22;40919;43.236;21.590;2023-07-20T07:05:12;614.70;2432.00
55016;DHT22;40919;43.236;21.590;2023-07-20T07:07:40;614.80;2432.00
55016;DHT22;40919;43.236;21.590;2023-07-20T07:10:06;614.90;2432.00
55016;DHT22;40919;43.236;21.590;2023-07-20T07:12:32;615.00;2432.00
55016;DHT22;40919;43.236;21.590;2023-07-20T07:14:58;615.10;2432.00
55016;DHT22;40919;43.236;21.590;2023-07-20T07:17:24;615.20;2432.00
55016;DHT22;40919;43.236;21.590;2023-07-20T07:19:52;615.20;2432.00
55016;DHT22;40919;43.236;21.590;2023-07-20T07:22:21;615.30;2432.00
55016;DHT22;40919;43.236;21.590;2023-07-20T07:24:48;640.00;2432.00
55016;DHT22;40919;43.236;21.590;2023-07-20T07:27:13;640.20;2432.00
55016;DHT22;40919;43.236;21.590;2023-07-20T07:29:42;640.30;2432.00
55016;DHT22;40919;43.236;21.590;2023-07-20T07:32:10;640.40;2432.00
55016;DHT22;40919;43.236;21.590;2023-07-20T07:34:36;640.40;2432.00
55016;DHT22;40919;43.236;21.590;2023-07-20T07:37:03;640.40;2432.00
55016;DHT22;40919;43.236;21.590;2023-07-20T07:39:30;640.50;2432.00
55016;DHT22;40919;43.236;21.590;2023-07-20T07:41:56;640.60;2432.00
55016;DHT22;40919;43.236;21.590;2023-07-20T07:44:22;640.60;2432.00
55016;DHT22;40919;43.236;21.590;2023-07-20T07:46:48;640.60;2432.00
55016;DHT22;40919;43.236;21.590;2023-07-20T07:51:40;665.70;2432.00
55016;DHT22;40919;43.236;21.590;2023-07-20T07:54:06;665.70;2432.00
55016;DHT22;40919;43.236;21.590;2023-07-20T08:01:24;640.90;2432.00
55016;DHT22;40919;43.236;21.590;2023-07-20T08:03:51;640.70;2432.00
55016;DHT22;40919;43.236;21.590;2023-07-20T08:06:17;640.60;2432.00
55016;DHT22;40919;43.236;21.590;2023-07-20T08:08:42;640.60;2432.00
55016;DHT22;40919;43.236;21.590;2023-07-20T08:11:09;640.70;2432.00
55016;DHT22;40919;43.236;21.590;2023-07-20T08:13:35;640.70;2432.00
55016;DHT22;40919;43.236;21.590;2023-07-20T08:16:01;640.90;2432.00
55016;DHT22;40919;43.236;21.590;2023-07-20T08:25:48;665.80;2432.00
55016;DHT22;40919;43.236;21.590;2023-07-20T08:28:15;665.80;2432.00
55016;DHT22;40919;43.236;21.590;2023-07-20T08:30:45;665.90;2432.00
55016;DHT22;40919;43.236;21.590;2023-07-20T08:33:13;666.30;2432.00
55016;DHT22;40919;43.236;21.590;2023-07-20T08:35:39;666.30;2432.00
55016;DHT22;40919;43.236;21.590;2023-07-20T08:38:05;691.50;2432.00
55016;DHT22;40919;43.236;21.590;2023-07-20T08:40:42;691.80;2432.00
55016;DHT22;40919;43.236;21.590;2023-07-20T08:43:13;716.80;2432.00
55016;DHT22;40919;43.236;21.590;2023-07-20T08:45:40;717.10;2432.00
55016;DHT22;40919;43.236;21.590;2023-07-20T08:48:07;717.10;2432.00
55016;DHT22;40919;43.236;21.590;2023-07-20T08:53:00;717.40;2432.00
55016;DHT22;40919;43.236;21.590;2023-07-20T08:55:27;717.20;2432.00
55016;DHT22;40919;43.236;21.590;2023-07-20T08:57:55;717.10;2432.00
55016;DHT22;40919;43.236;21.590;2023-07-20T09:00:21;717.00;2432.00
55016;DHT22;40919;43.236;21.590;2023-07-20T09:02:50;716.90;2432.00
55016;DHT22;40919;43.236;21.590;2023-07-20T09:05:17;716.90;2432.00
55016;DHT22;40919;43.236;21.590;2023-07-20T09:07:43;716.80;2432.00
55016;DHT22;40919;43.236;21.590;2023-07-20T09:10:09;717.20;2432.00
55016;DHT22;40919;43.236;21.590;2023-07-20T09:12:40;717.30;2432.00
55016;DHT22;40919;43.236;21.590;2023-07-20T09:15:07;742.40;2432.00
55016;DHT22;40919;43.236;21.590;2023-07-20T09:17:33;717.70;2432.00
55016;DHT22;40919;43.236;21.590;2023-07-20T09:30:19;742.60;2432.00
55016;DHT22;40919;43.236;21.590;2023-07-20T09:32:46;742.40;2432.00
55016;DHT22;40919;43.236;21.590;2023-07-20T09:35:16;742.40;2432.00
55016;DHT22;40919;43.236;21.590;2023-07-20T09:37:58;717.40;2432.00
55016;DHT22;40919;43.236;21.590;2023-07-20T09:40:25;717.60;2432.00
55016;DHT22;40919;43.236;21.590;2023-07-20T09:42:55;742.50;2432.00
55016;DHT22;40919;43.236;21.590;2023-07-20T09:45:39;742.70;2432.00
55016;DHT22;40919;43.236;21.590;2023-07-20T09:48:07;743.00;2432.00
55016;DHT22;40919;43.236;21.590;2023-07-20T09:50:34;743.10;2432.00
55016;DHT22;40919;43.236;21.590;2023-07-20T09:53:01;743.30;2432.00
55016;DHT22;40919;43.236;21.590;2023-07-20T09:55:29;768.10;2432.00
55016;DHT22;40919;43.236;21.590;2023-07-20T09:57:56;768.40;2432.00
55016;DHT22;40919;43.236;21.590;2023-07-20T10:00:22;768.40;2432.00
55016;DHT22;40919;43.236;21.590;2023-07-20T10:02:50;768.40;2432.00
55016;DHT22;40919;43.236;21.590;2023-07-20T10:05:17;768.70;2432.00
55016;DHT22;40919;43.236;21.590;2023-07-20T10:07:50;768.90;2432.00
55016;DHT22;40919;43.236;21.590;2023-07-20T10:10:18;793.60;2432.00
55016;DHT22;40919;43.236;21.590;2023-07-20T10:12:48;793.80;2432.00
55016;DHT22;40919;43.236;21.590;2023-07-20T10:15:26;794.00;2432.00
55016;DHT22;40919;43.236;21.590;2023-07-20T10:18:10;794.00;2432.00
55016;DHT22;40919;43.236;21.590;2023-07-20T10:20:39;793.90;2432.00
55016;DHT22;40919;43.236;21.590;2023-07-20T10:23:07;794.10;2432.00
55016;DHT22;40919;43.236;21.590;2023-07-20T10:25:33;794.30;2432.00
55016;DHT22;40919;43.236;21.590;2023-07-20T10:28:05;794.50;2380.80
55016;DHT22;40919;43.236;21.590;2023-07-20T10:30:37;819.30;2406.40
55016;DHT22;40919;43.236;21.590;2023-07-20T10:33:04;819.60;2380.80
55016;DHT22;40919;43.236;21.590;2023-07-20T10:35:31;819.50;2329.60
55016;DHT22;40919;43.236;21.590;2023-07-20T10:38:01;819.40;2329.60
55016;DHT22;40919;43.236;21.590;2023-07-20T10:40:36;819.60;2355.20
55016;DHT22;40919;43.236;21.590;2023-07-20T10:43:08;819.90;2355.20
55016;DHT22;40919;43.236;21.590;2023-07-20T10:45:41;820.10;2304.00
55016;DHT22;40919;43.236;21.590;2023-07-20T10:48:16;820.10;2278.40
55016;DHT22;40919;43.236;21.590;2023-07-20T10:50:42;844.90;2278.40
55016;DHT22;40919;43.236;21.590;2023-07-20T10:53:17;844.90;2278.40
55016;DHT22;40919;43.236;21.590;2023-07-20T10:55:43;844.90;2201.60
55016;DHT22;40919;43.236;21.590;2023-07-20T10:58:13;820.10;2176.00
55016;DHT22;40919;43.236;21.590;2023-07-20T11:00:59;844.90;2227.20
55016;DHT22;40919;43.236;21.590;2023-07-20T11:03:37;845.20;2252.80
55016;DHT22;40919;43.236;21.590;2023-07-20T11:11:34;845.60;2201.60
55016;DHT22;40919;43.236;21.590;2023-07-20T11:14:08;844.90;2150.40
55016;DHT22;40919;43.236;21.590;2023-07-20T11:19:04;845.40;2150.40
55016;DHT22;40919;43.236;21.590;2023-07-20T11:21:38;845.40;2201.60
55016;DHT22;40919;43.236;21.590;2023-07-20T11:24:05;845.70;2150.40
55016;DHT22;40919;43.236;21.590;2023-07-20T11:26:40;870.50;2124.80
55016;DHT22;40919;43.236;21.590;2023-07-20T11:29:06;845.60;2124.80
55016;DHT22;40919;43.236;21.590;2023-07-20T11:31:35;845.40;2124.80
55016;DHT22;40919;43.236;21.590;2023-07-20T11:34:01;844.90;2124.80
55016;DHT22;40919;43.236;21.590;2023-07-20T11:36:27;845.20;2176.00
55016;DHT22;40919;43.236;21.590;2023-07-20T11:38:53;845.70;2099.20
55016;DHT22;40919;43.236;21.590;2023-07-20T11:41:19;870.50;2099.20
55016;DHT22;40919;43.236;21.590;2023-07-20T11:43:45;845.70;2073.60
55016;DHT22;40919;43.236;21.590;2023-07-20T11:46:11;870.40;2150.40
55016;DHT22;40919;43.236;21.590;2023-07-20T11:48:37;870.50;2048.00
55016;DHT22;40919;43.236;21.590;2023-07-20T11:51:05;870.70;2048.00
55016;DHT22;40919;43.236;21.590;2023-07-20T11:53:31;871.00;2073.60
55016;DHT22;40919;43.236;21.590;2023-07-20T11:55:58;871.10;2048.00
55016;DHT22;40919;43.236;21.590;2023-07-20T11:58:24;871.10;1996.80
55016;DHT22;40919;43.236;21.590;2023-07-20T12:00:55;871.30;2022.40
55016;DHT22;40919;43.236;21.590;2023-07-20T12:03:21;896.00;1971.20
55016;DHT22;40919;43.236;21.590;2023-07-20T12:05:47;896.40;1996.80
55016;DHT22;40919;43.236;21.590;2023-07-20T12:08:13;896.60;435.20
55016;DHT22;40919;43.236;21.590;2023-07-20T12:10:40;896.80;281.60
55016;DHT22;40919;43.236;21.590;2023-07-20T12:13:10;896.90;256.00
55016;DHT22;40919;43.236;21.590;2023-07-20T12:15:39;921.90;281.60
55016;DHT22;40919;43.236;21.590;2023-07-20T12:18:05;921.90;281.60
55016;DHT22;40919;43.236;21.590;2023-07-20T12:20:35;921.90;281.60
55016;DHT22;40919;43.236;21.590;2023-07-20T12:23:09;896.90;256.00
55016;DHT22;40919;43.236;21.590;2023-07-20T12:25:45;896.80;256.00
55016;DHT22;40919;43.236;21.590;2023-07-20T12:28:13;896.90;256.00
55016;DHT22;40919;43.236;21.590;2023-07-20T12:30:40;921.70;281.60
55016;DHT22;40919;43.236;21.590;2023-07-20T12:33:06;921.80;281.60
55016;DHT22;40919;43.236;21.590;2023-07-20T12:35:33;921.90;281.60
55016;DHT22;40919;43.236;21.590;2023-07-20T12:37:59;922.00;281.60
55016;DHT22;40919;43.236;21.590;2023-07-20T12:40:25;922.00;281.60
55016;DHT22;40919;43.236;21.590;2023-07-20T12:42:51;922.10;281.60
55016;DHT22;40919;43.236;21.590;2023-07-20T12:45:17;922.30;281.60
55016;DHT22;40919;43.236;21.590;2023-07-20T12:47:43;922.30;281.60
55016;DHT22;40919;43.236;21.590;2023-07-20T12:50:10;922.30;281.60
55016;DHT22;40919;43.236;21.590;2023-07-20T12:52:37;922.40;281.60
55016;DHT22;40919;43.236;21.590;2023-07-20T12:55:04;922.40;281.60
55016;DHT22;40919;43.236;21.590;2023-07-20T12:57:31;922.40;281.60
55016;DHT22;40919;43.236;21.590;2023-07-20T12:59:56;922.50;281.60
55016;DHT22;40919;43.236;21.590;2023-07-20T13:02:23;922.50;281.60
55016;DHT22;40919;43.236;21.590;2023-07-20T13:04:48;922.50;281.60
55016;DHT22;40919;43.236;21.590;2023-07-20T13:07:15;922.40;281.60
55016;DHT22;40919;43.236;21.590;2023-07-20T13:09:40;922.50;281.60
55016;DHT22;40919;43.236;21.590;2023-07-20T13:12:07;922.50;281.60
55016;DHT22;40919;43.236;21.590;2023-07-20T13:14:33;922.50;281.60
55016;DHT22;40919;43.236;21.590;2023-07-20T13:16:58;922.50;281.60
55016;DHT22;40919;43.236;21.590;2023-07-20T13:19:24;922.50;281.60
55016;DHT22;40919;43.236;21.590;2023-07-20T13:21:50;922.50;281.60
55016;DHT22;40919;43.236;21.590;2023-07-20T13:24:16;922.50;281.60
55016;DHT22;40919;43.236;21.590;2023-07-20T13:26:42;922.40;281.60
55016;DHT22;40919;43.236;21.590;2023-07-20T13:29:08;922.30;281.60
55016;DHT22;40919;43.236;21.590;2023-07-20T13:31:34;922.50;281.60
55016;DHT22;40919;43.236;21.590;2023-07-20T13:34:00;922.50;281.60
55016;DHT22;40919;43.236;21.590;2023-07-20T13:36:26;922.40;281.60
55016;DHT22;40919;43.236;21.590;2023-07-20T13:38:52;922.30;281.60
55016;DHT22;40919;43.236;21.590;2023-07-20T13:41:19;922.00;281.60
55016;DHT22;40919;43.236;21.590;2023-07-20T13:43:44;922.10;281.60
55016;DHT22;40919;43.236;21.590;2023-07-20T13:46:11;922.00;281.60
55016;DHT22;40919;43.236;21.590;2023-07-20T13:48:38;922.00;281.60
55016;DHT22;40919;43.236;21.590;2023-07-20T13:51:03;922.10;281.60
55016;DHT22;40919;43.236;21.590;2023-07-20T13:53:30;922.50;281.60
55016;DHT22;40919;43.236;21.590;2023-07-20T13:55:56;922.50;281.60
55016;DHT22;40919;43.236;21.590;2023-07-20T13:58:22;947.20;281.60
55016;DHT22;40919;43.236;21.590;2023-07-20T14:00:48;947.20;281.60
55016;DHT22;40919;43.236;21.590;2023-07-20T14:03:14;947.30;281.60
55016;DHT22;40919;43.236;21.590;2023-07-20T14:05:39;947.30;281.60
55016;DHT22;40919;43.236;21.590;2023-07-20T14:08:05;947.40;281.60
55016;DHT22;40919;43.236;21.590;2023-07-20T14:10:31;947.30;281.60
55016;DHT22;40919;43.236;21.590;2023-07-20T14:12:57;922.40;281.60
55016;DHT22;40919;43.236;21.590;2023-07-20T14:15:23;922.10;281.60
55016;DHT22;40919;43.236;21.590;2023-07-20T14:17:49;896.60;256.00
55016;DHT22;40919;43.236;21.590;2023-07-20T14:20:15;921.80;281.60
55016;DHT22;40919;43.236;21.590;2023-07-20T14:22:40;921.90;281.60
55016;DHT22;40919;43.236;21.590;2023-07-20T14:25:07;921.80;281.60
55016;DHT22;40919;43.236;21.590;2023-07-20T14:27:33;922.00;281.60
55016;DHT22;40919;43.236;21.590;2023-07-20T14:29:59;922.10;281.60
55016;DHT22;40919;43.236;21.590;2023-07-20T14:32:25;922.20;281.60
55016;DHT22;40919;43.236;21.590;2023-07-20T14:34:51;922.30;281.60
55016;DHT22;40919;43.236;21.590;2023-07-20T14:37:17;922.30;281.60
55016;DHT22;40919;43.236;21.590;2023-07-20T14:39:43;922.30;281.60
55016;DHT22;40919;43.236;21.590;2023-07-20T14:42:08;922.30;281.60
55016;DHT22;40919;43.236;21.590;2023-07-20T14:44:34;922.30;281.60
55016;DHT22;40919;43.236;21.590;2023-07-20T14:47:00;922.00;281.60
55016;DHT22;40919;43.236;21.590;2023-07-20T14:49:26;922.00;281.60
55016;DHT22;40919;43.236;21.590;2023-07-20T14:51:55;922.00;281.60
55016;DHT22;40919;43.236;21.590;2023-07-20T14:54:21;922.00;281.60
55016;DHT22;40919;43.236;21.590;2023-07-20T14:56:50;922.20;281.60
55016;DHT22;40919;43.236;21.590;2023-07-20T14:59:19;922.10;281.60
55016;DHT22;40919;43.236;21.590;2023-07-20T15:01:45;922.10;281.60
55016;DHT22;40919;43.236;21.590;2023-07-20T15:04:16;922.10;281.60
55016;DHT22;40919;43.236;21.590;2023-07-20T15:06:42;922.00;281.60
55016;DHT22;40919;43.236;21.590;2023-07-20T15:09:08;922.00;281.60
55016;DHT22;40919;43.236;21.590;2023-07-20T15:11:35;921.70;281.60
55016;DHT22;40919;43.236;21.590;2023-07-20T15:14:01;921.80;281.60
55016;DHT22;40919;43.236;21.590;2023-07-20T15:16:27;921.70;281.60
55016;DHT22;40919;43.236;21.590;2023-07-20T15:18:53;921.70;281.60
55016;DHT22;40919;43.236;21.590;2023-07-20T15:21:18;921.70;281.60
55016;DHT22;40919;43.236;21.590;2023-07-20T15:23:46;921.60;281.60
55016;DHT22;40919;43.236;21.590;2023-07-20T15:26:12;896.90;256.00
55016;DHT22;40919;43.236;21.590;2023-07-20T15:28:38;896.60;256.00
55016;DHT22;40919;43.236;21.590;2023-07-20T15:31:05;896.50;256.00
55016;DHT22;40919;43.236;21.590;2023-07-20T15:33:31;871.00;256.00
55016;DHT22;40919;43.236;21.590;2023-07-20T15:35:57;896.00;256.00
55016;DHT22;40919;43.236;21.590;2023-07-20T15:38:23;871.30;256.00
55016;DHT22;40919;43.236;21.590;2023-07-20T15:40:49;871.10;256.00
55016;DHT22;40919;43.236;21.590;2023-07-20T15:43:15;871.00;256.00
55016;DHT22;40919;43.236;21.590;2023-07-20T15:45:41;871.20;256.00
55016;DHT22;40919;43.236;21.590;2023-07-20T15:48:06;871.10;256.00
55016;DHT22;40919;43.236;21.590;2023-07-20T15:50:32;871.00;256.00
55016;DHT22;40919;43.236;21.590;2023-07-20T15:52:58;871.00;256.00
55016;DHT22;40919;43.236;21.590;2023-07-20T15:55:24;870.90;256.00
55016;DHT22;40919;43.236;21.590;2023-07-20T15:57:49;870.90;256.00
55016;DHT22;40919;43.236;21.590;2023-07-20T16:00:16;870.70;256.00
55016;DHT22;40919;43.236;21.590;2023-07-20T16:02:41;870.50;256.00
55016;DHT22;40919;43.236;21.590;2023-07-20T16:05:07;845.70;256.00
55016;DHT22;40919;43.236;21.590;2023-07-20T16:07:34;845.40;256.00
55016;DHT22;40919;43.236;21.590;2023-07-20T16:10:00;845.20;256.00
55016;DHT22;40919;43.236;21.590;2023-07-20T16:12:27;845.00;256.00
55016;DHT22;40919;43.236;21.590;2023-07-20T16:14:56;844.80;256.00
55016;DHT22;40919;43.236;21.590;2023-07-20T16:17:22;844.80;256.00
55016;DHT22;40919;43.236;21.590;2023-07-20T16:19:48;820.00;230.40
55016;DHT22;40919;43.236;21.590;2023-07-20T16:22:13;819.80;230.40
55016;DHT22;40919;43.236;21.590;2023-07-20T16:24:39;819.80;230.40
55016;DHT22;40919;43.236;21.590;2023-07-20T16:27:08;819.80;230.40
55016;DHT22;40919;43.236;21.590;2023-07-20T16:29:33;819.50;230.40
55016;DHT22;40919;43.236;21.590;2023-07-20T16:31:59;819.40;230.40
55016;DHT22;40919;43.236;21.590;2023-07-20T16:34:25;819.50;230.40
55016;DHT22;40919;43.236;21.590;2023-07-20T16:36:51;819.30;230.40
55016;DHT22;40919;43.236;21.590;2023-07-20T16:39:17;819.30;230.40
55016;DHT22;40919;43.236;21.590;2023-07-20T16:41:43;819.20;230.40
55016;DHT22;40919;43.236;21.590;2023-07-20T16:44:09;794.50;230.40
55016;DHT22;40919;43.236;21.590;2023-07-20T16:46:34;794.50;230.40
55016;DHT22;40919;43.236;21.590;2023-07-20T16:49:00;794.40;230.40
55016;DHT22;40919;43.236;21.590;2023-07-20T16:51:34;794.40;230.40
55016;DHT22;40919;43.236;21.590;2023-07-20T16:54:00;794.30;230.40
55016;DHT22;40919;43.236;21.590;2023-07-20T16:56:27;794.40;230.40
55016;DHT22;40919;43.236;21.590;2023-07-20T16:58:53;794.30;230.40
55016;DHT22;40919;43.236;21.590;2023-07-20T17:01:19;794.20;230.40
55016;DHT22;40919;43.236;21.590;2023-07-20T17:03:44;794.10;230.40
55016;DHT22;40919;43.236;21.590;2023-07-20T17:06:10;794.00;230.40
55016;DHT22;40919;43.236;21.590;2023-07-20T17:08:36;793.80;230.40
55016;DHT22;40919;43.236;21.590;2023-07-20T17:11:02;793.70;230.40
55016;DHT22;40919;43.236;21.590;2023-07-20T17:13:29;793.60;230.40
55016;DHT22;40919;43.236;21.590;2023-07-20T17:15:58;793.70;230.40
55016;DHT22;40919;43.236;21.590;2023-07-20T17:18:24;768.90;204.80
55016;DHT22;40919;43.236;21.590;2023-07-20T17:20:50;768.60;204.80
55016;DHT22;40919;43.236;21.590;2023-07-20T17:23:17;768.60;204.80
55016;DHT22;40919;43.236;21.590;2023-07-20T17:25:46;768.60;204.80
55016;DHT22;40919;43.236;21.590;2023-07-20T17:28:13;768.60;204.80
55016;DHT22;40919;43.236;21.590;2023-07-20T17:30:39;768.50;204.80
55016;DHT22;40919;43.236;21.590;2023-07-20T17:33:05;768.50;204.80
55016;DHT22;40919;43.236;21.590;2023-07-20T17:35:31;768.40;204.80
55016;DHT22;40919;43.236;21.590;2023-07-20T17:37:57;768.20;204.80
55016;DHT22;40919;43.236;21.590;2023-07-20T17:40:23;768.20;204.80
55016;DHT22;40919;43.236;21.590;2023-07-20T17:42:49;768.20;204.80
55016;DHT22;40919;43.236;21.590;2023-07-20T17:45:15;742.80;204.80
55016;DHT22;40919;43.236;21.590;2023-07-20T17:47:41;743.30;204.80
55016;DHT22;40919;43.236;21.590;2023-07-20T17:50:08;768.00;204.80
55016;DHT22;40919;43.236;21.590;2023-07-20T17:52:38;743.20;204.80
55016;DHT22;40919;43.236;21.590;2023-07-20T17:55:04;743.20;204.80
55016;DHT22;40919;43.236;21.590;2023-07-20T17:57:30;743.10;204.80
55016;DHT22;40919;43.236;21.590;2023-07-20T18:02:24;743.10;204.80
55016;DHT22;40919;43.236;21.590;2023-07-20T18:04:51;742.90;204.80
55016;DHT22;40919;43.236;21.590;2023-07-20T18:07:17;742.90;204.80
55016;DHT22;40919;43.236;21.590;2023-07-20T18:12:09;742.90;204.80
55016;DHT22;40919;43.236;21.590;2023-07-20T18:14:35;742.80;204.80
55016;DHT22;40919;43.236;21.590;2023-07-20T18:17:01;742.80;204.80
55016;DHT22;40919;43.236;21.590;2023-07-20T18:19:27;742.70;204.80
55016;DHT22;40919;43.236;21.590;2023-07-20T18:21:53;742.80;204.80
55016;DHT22;40919;43.236;21.590;2023-07-20T18:24:18;742.70;204.80
55016;DHT22;40919;43.236;21.590;2023-07-20T18:26:44;742.80;204.80
55016;DHT22;40919;43.236;21.590;2023-07-20T18:29:10;742.70;204.80
55016;DHT22;40919;43.236;21.590;2023-07-20T18:31:36;742.70;204.80
55016;DHT22;40919;43.236;21.590;2023-07-20T18:34:02;742.50;204.80
55016;DHT22;40919;43.236;21.590;2023-07-20T18:36:27;742.60;204.80
55016;DHT22;40919;43.236;21.590;2023-07-20T18:38:54;742.60;204.80
55016;DHT22;40919;43.236;21.590;2023-07-20T18:41:20;742.50;204.80
55016;DHT22;40919;43.236;21.590;2023-07-20T18:43:47;742.50;204.80
55016;DHT22;40919;43.236;21.590;2023-07-20T18:46:13;742.50;204.80
55016;DHT22;40919;43.236;21.590;2023-07-20T18:48:39;742.40;204.80
55016;DHT22;40919;43.236;21.590;2023-07-20T18:51:05;742.40;204.80
55016;DHT22;40919;43.236;21.590;2023-07-20T19:15:34;717.00;179.20
55016;DHT22;40919;43.236;21.590;2023-07-20T19:18:00;716.90;179.20
55016;DHT22;40919;43.236;21.590;2023-07-20T19:52:09;691.70;153.60